createdAt,value
2023-03-08T00:01:18.730Z,6.90
2023-03-08T00:03:45.793Z,6.90
2023-03-08T00:06:15.251Z,7.17
2023-03-08T00:08:42.135Z,7.30
2023-03-08T00:11:11.068Z,6.90
2023-03-08T00:13:37.605Z,6.20
2023-03-08T00:16:07.031Z,7.03
2023-03-08T00:18:34.739Z,6.97
2023-03-08T00:21:07.197Z,7.10
2023-03-08T00:23:33.931Z,6.57
2023-03-08T00:26:00.919Z,6.90
2023-03-08T00:28:27.908Z,7.27
2023-03-08T00:31:02.249Z,6.73
2023-03-08T00:33:30.432Z,6.73
2023-03-08T00:36:05.363Z,7.13
2023-03-08T00:38:33.540Z,7.10
2023-03-08T00:41:00.329Z,6.87
2023-03-08T00:43:27.058Z,6.93
2023-03-08T00:45:53.509Z,7.00
2023-03-08T00:48:20.761Z,6.77
2023-03-08T00:50:47.567Z,7.10
2023-03-08T00:53:14.243Z,7.33
2023-03-08T00:55:49.151Z,7.43
2023-03-08T00:58:15.673Z,6.67
2023-03-08T01:00:42.099Z,6.70
2023-03-08T01:03:08.976Z,7.03
2023-03-08T01:05:43.897Z,6.33
2023-03-08T01:08:13.195Z,7.13
2023-03-08T01:10:40.670Z,6.77
2023-03-08T01:13:09.477Z,6.57
2023-03-08T01:15:37.823Z,6.87
2023-03-08T01:18:05.962Z,6.80
2023-03-08T01:20:32.685Z,6.40
2023-03-08T01:22:59.160Z,6.50
2023-03-08T01:25:25.671Z,6.37
2023-03-08T01:27:52.436Z,6.50
2023-03-08T01:30:18.832Z,6.57
2023-03-08T01:32:45.611Z,6.20
2023-03-08T01:35:12.158Z,6.60
2023-03-08T01:37:38.911Z,6.43
2023-03-08T01:40:06.436Z,6.80
2023-03-08T01:42:33.421Z,7.10
2023-03-08T01:45:06.195Z,6.73
2023-03-08T01:47:36.459Z,6.50
2023-03-08T01:50:10.789Z,6.30
2023-03-08T01:52:48.681Z,6.27
2023-03-08T01:55:17.050Z,6.80
2023-03-08T01:57:52.122Z,6.17
2023-03-08T02:00:22.957Z,6.00
2023-03-08T02:02:59.544Z,6.33
2023-03-08T02:05:27.646Z,6.50
2023-03-08T02:07:54.008Z,6.37
2023-03-08T02:10:20.908Z,6.30
2023-03-08T02:12:48.708Z,6.43
2023-03-08T02:15:20.006Z,6.50
2023-03-08T02:17:46.859Z,6.03
2023-03-08T02:20:30.511Z,6.33
2023-03-08T02:23:27.726Z,5.73
2023-03-08T02:25:57.038Z,6.37
2023-03-08T02:28:25.188Z,6.23
2023-03-08T02:30:52.122Z,6.93
2023-03-08T02:33:18.821Z,6.73
2023-03-08T02:35:45.845Z,6.90
2023-03-08T02:38:14.839Z,6.30
2023-03-08T02:40:41.630Z,6.40
2023-03-08T02:43:08.457Z,6.47
2023-03-08T02:45:35.365Z,6.37
2023-03-08T02:48:04.039Z,6.17
2023-03-08T02:50:31.681Z,6.87
2023-03-08T02:52:58.616Z,6.53
2023-03-08T02:55:24.986Z,6.87
2023-03-08T02:57:52.120Z,6.83
2023-03-08T03:00:19.141Z,7.00
2023-03-08T03:02:45.933Z,6.90
2023-03-08T03:05:12.873Z,7.03
2023-03-08T03:07:41.567Z,7.23
2023-03-08T03:10:12.267Z,6.57
2023-03-08T03:12:39.202Z,6.97
2023-03-08T03:15:08.132Z,6.90
2023-03-08T03:17:36.745Z,6.87
2023-03-08T03:20:06.561Z,7.50
2023-03-08T03:22:33.266Z,7.13
2023-03-08T03:24:59.658Z,7.00
2023-03-08T03:27:26.117Z,6.20
2023-03-08T03:29:52.586Z,6.40
2023-03-08T03:32:19.660Z,7.20
2023-03-08T03:34:46.600Z,7.10
2023-03-08T03:37:12.981Z,7.40
2023-03-08T03:39:40.175Z,7.00
2023-03-08T03:42:08.005Z,7.47
2023-03-08T03:44:34.494Z,6.77
2023-03-08T03:47:00.968Z,6.67
2023-03-08T03:49:27.527Z,6.93
2023-03-08T03:51:54.014Z,7.03
2023-03-08T03:54:20.924Z,7.17
2023-03-08T03:56:47.438Z,6.73
2023-03-08T03:59:13.858Z,7.00
2023-03-08T04:01:40.235Z,6.50
2023-03-08T04:04:06.821Z,7.33
2023-03-08T04:06:34.327Z,6.77
2023-03-08T04:09:04.479Z,6.80
2023-03-08T04:11:37.386Z,7.10
2023-03-08T04:14:04.757Z,6.80
2023-03-08T04:16:33.499Z,6.50
2023-03-08T04:19:07.130Z,7.40
2023-03-08T04:21:33.734Z,7.27
2023-03-08T04:24:00.902Z,7.13
2023-03-08T04:26:27.793Z,7.40
2023-03-08T04:28:54.435Z,6.67
2023-03-08T04:31:29.641Z,6.77
2023-03-08T04:33:56.246Z,7.10
2023-03-08T04:36:23.090Z,6.73
2023-03-08T04:38:50.735Z,6.97
2023-03-08T04:41:17.950Z,6.53
2023-03-08T04:43:47.340Z,7.23
2023-03-08T04:46:15.283Z,6.53
2023-03-08T04:48:42.400Z,6.47
2023-03-08T04:51:11.936Z,6.73
2023-03-08T04:53:39.245Z,7.20
2023-03-08T04:56:06.740Z,7.30
2023-03-08T04:58:33.812Z,7.43
2023-03-08T05:01:00.296Z,7.27
2023-03-08T05:03:26.670Z,7.20
2023-03-08T05:05:55.497Z,7.33
2023-03-08T05:08:23.573Z,6.90
2023-03-08T05:11:00.520Z,6.63
2023-03-08T05:13:29.767Z,6.97
2023-03-08T05:15:56.708Z,7.50
2023-03-08T05:18:23.161Z,6.73
2023-03-08T05:20:57.526Z,7.23
2023-03-08T05:23:27.091Z,7.40
2023-03-08T05:25:56.140Z,7.43
2023-03-08T05:28:27.771Z,7.20
2023-03-08T05:31:20.978Z,7.97
2023-03-08T05:33:50.892Z,7.60
2023-03-08T05:36:18.703Z,7.43
2023-03-08T05:38:45.208Z,7.83
2023-03-08T05:41:14.947Z,8.00
2023-03-08T05:43:41.767Z,8.17
2023-03-08T05:46:11.841Z,7.70
2023-03-08T05:48:38.835Z,8.00
2023-03-08T05:51:16.939Z,7.37
2023-03-08T05:53:43.962Z,7.80
2023-03-08T05:56:15.934Z,7.63
2023-03-08T05:58:43.990Z,7.83
2023-03-08T06:01:17.018Z,7.33
2023-03-08T06:03:44.867Z,7.70
2023-03-08T06:06:13.276Z,7.00
2023-03-08T06:08:40.228Z,7.00
2023-03-08T06:11:06.917Z,7.70
2023-03-08T06:13:33.891Z,7.27
2023-03-08T06:16:01.036Z,7.60
2023-03-08T06:18:28.443Z,7.53
2023-03-08T06:21:16.103Z,7.23
2023-03-08T06:23:43.406Z,7.13
2023-03-08T06:26:11.499Z,7.73
2023-03-08T06:28:40.315Z,7.43
2023-03-08T06:31:08.192Z,7.43
2023-03-08T06:33:35.169Z,7.33
2023-03-08T06:36:08.941Z,7.13
2023-03-08T06:38:37.702Z,7.60
2023-03-08T06:41:05.471Z,8.17
2023-03-08T06:43:32.469Z,8.27
2023-03-08T06:45:58.919Z,8.00
2023-03-08T06:48:25.362Z,7.40
2023-03-08T06:50:51.872Z,8.97
2023-03-08T06:53:18.293Z,7.93
2023-03-08T06:55:44.745Z,8.60
2023-03-08T06:58:11.115Z,7.93
2023-03-08T07:00:38.464Z,8.80
2023-03-08T07:03:05.265Z,9.47
2023-03-08T07:05:31.758Z,8.13
2023-03-08T07:07:58.595Z,8.77
2023-03-08T07:10:25.292Z,8.43
2023-03-08T07:12:51.743Z,8.70
2023-03-08T07:15:22.316Z,8.63
2023-03-08T07:17:51.048Z,8.43
2023-03-08T07:20:20.340Z,7.93
2023-03-08T07:22:47.172Z,8.50
2023-03-08T07:25:16.072Z,8.03
2023-03-08T07:27:43.095Z,9.03
2023-03-08T07:30:11.099Z,8.60
2023-03-08T07:32:40.444Z,8.13
2023-03-08T07:35:08.095Z,8.60
2023-03-08T07:37:34.597Z,8.97
2023-03-08T07:40:00.971Z,8.80
2023-03-08T07:42:27.516Z,8.87
2023-03-08T07:44:54.214Z,9.40
2023-03-08T07:47:21.337Z,9.57
2023-03-08T07:49:47.896Z,9.47
2023-03-08T07:52:14.572Z,9.60
2023-03-08T07:54:41.067Z,8.83
2023-03-08T07:57:07.787Z,8.60
2023-03-08T07:59:34.173Z,9.57
2023-03-08T08:02:00.566Z,9.23
2023-03-08T08:04:26.959Z,8.97
2023-03-08T08:06:53.368Z,10.10
2023-03-08T08:09:19.797Z,8.63
2023-03-08T08:11:46.500Z,9.77
2023-03-08T08:14:12.893Z,9.03
2023-03-08T08:16:39.392Z,9.63
2023-03-08T08:19:06.218Z,9.20
2023-03-08T08:21:32.853Z,9.63
2023-03-08T08:23:59.455Z,10.13
2023-03-08T08:26:26.085Z,9.87
2023-03-08T08:28:54.565Z,9.97
2023-03-08T08:31:29.078Z,10.63
2023-03-08T08:33:55.509Z,10.27
2023-03-08T08:36:21.979Z,11.33
2023-03-08T08:38:48.897Z,10.83
2023-03-08T08:41:18.277Z,11.87
2023-03-08T08:43:46.424Z,11.80
2023-03-08T08:46:13.500Z,12.53
2023-03-08T08:48:40.317Z,12.23
2023-03-08T08:51:09.028Z,12.63
2023-03-08T08:53:36.929Z,11.73
2023-03-08T08:56:26.729Z,12.37
2023-03-08T08:58:59.445Z,13.00
2023-03-08T09:01:29.159Z,12.70
2023-03-08T09:03:56.064Z,12.10
2023-03-08T09:06:24.130Z,11.97
2023-03-08T09:08:56.083Z,12.43
2023-03-08T09:11:23.648Z,12.83
2023-03-08T09:13:50.516Z,13.23
2023-03-08T09:16:33.630Z,13.57
2023-03-08T09:19:01.700Z,15.17
2023-03-08T09:21:30.479Z,14.57
2023-03-08T09:24:00.797Z,13.73
2023-03-08T09:26:32.737Z,15.20
2023-03-08T09:29:04.704Z,13.57
2023-03-08T09:31:32.821Z,12.43
2023-03-08T09:34:00.128Z,12.03
2023-03-08T09:36:28.729Z,11.60
2023-03-08T09:38:56.336Z,12.87
2023-03-08T09:41:46.933Z,13.07
2023-03-08T09:44:43.657Z,12.17
2023-03-08T09:47:58.533Z,13.83
2023-03-08T09:50:34.061Z,12.70
2023-03-08T09:53:16.568Z,12.50
2023-03-08T09:55:53.041Z,13.43
2023-03-08T09:58:31.819Z,13.20
2023-03-08T10:01:12.022Z,12.83
2023-03-08T10:04:03.208Z,13.53
2023-03-08T10:06:50.121Z,14.03
2023-03-08T10:09:31.863Z,13.57
2023-03-08T10:12:22.726Z,14.13
2023-03-08T10:14:51.946Z,14.73
2023-03-08T10:17:22.506Z,14.93
2023-03-08T10:20:06.968Z,15.13
2023-03-08T10:22:39.005Z,14.57
2023-03-08T10:25:20.527Z,14.97
2023-03-08T10:27:51.749Z,15.80
2023-03-08T10:30:20.883Z,14.17
2023-03-08T10:32:50.969Z,15.73
2023-03-08T10:35:29.700Z,15.00
2023-03-08T10:37:56.118Z,15.97
2023-03-08T10:40:22.808Z,15.77
2023-03-08T10:43:14.504Z,15.57
2023-03-08T10:45:40.857Z,16.67
2023-03-08T10:48:07.658Z,15.57
2023-03-08T10:50:37.683Z,16.73
2023-03-08T10:53:17.121Z,16.77
2023-03-08T10:55:48.832Z,15.10
2023-03-08T10:58:34.815Z,16.87
2023-03-08T11:01:26.396Z,15.43
2023-03-08T11:04:06.058Z,16.43
2023-03-08T11:06:35.327Z,15.70
2023-03-08T11:09:04.393Z,17.43
2023-03-08T11:11:41.517Z,16.10
2023-03-08T11:14:11.058Z,17.20
2023-03-08T11:16:52.877Z,16.00
2023-03-08T11:19:33.119Z,15.73
2023-03-08T11:22:18.493Z,14.37
2023-03-08T11:25:11.091Z,16.17
2023-03-08T11:28:22.888Z,16.63
2023-03-08T11:31:03.733Z,15.40
2023-03-08T11:33:48.773Z,15.53
2023-03-08T11:36:35.341Z,16.10
2023-03-08T11:39:30.717Z,15.53
2023-03-08T11:42:05.829Z,16.07
2023-03-08T11:44:44.158Z,14.60
2023-03-08T11:47:34.036Z,16.23
2023-03-08T11:50:10.237Z,15.67
2023-03-08T11:55:55.402Z,15.30
2023-03-08T11:58:28.433Z,16.57
2023-03-08T12:01:01.385Z,16.97
2023-03-08T12:03:43.237Z,16.60
2023-03-08T12:06:29.192Z,16.47
2023-03-08T12:09:05.014Z,15.63
2023-03-08T12:11:35.997Z,17.00
2023-03-08T12:14:18.147Z,17.60
2023-03-08T12:17:10.120Z,15.70
2023-03-08T12:19:39.763Z,16.90
2023-03-08T12:22:12.195Z,17.20
2023-03-08T12:24:51.294Z,15.40
2023-03-08T12:27:21.277Z,16.57
2023-03-08T12:30:18.906Z,17.20
2023-03-08T12:32:47.374Z,17.43
2023-03-08T12:35:23.266Z,16.73
2023-03-08T12:38:00.587Z,16.40
2023-03-08T12:40:50.067Z,17.43
2023-03-08T12:43:19.441Z,15.83
2023-03-08T12:46:09.895Z,17.00
2023-03-08T12:48:49.255Z,16.70
2023-03-08T12:51:20.296Z,17.37
2023-03-08T12:53:49.657Z,16.80
2023-03-08T12:56:35.624Z,18.00
2023-03-08T12:59:23.491Z,18.40
2023-03-08T13:01:55.679Z,19.30
2023-03-08T13:04:42.347Z,19.60
2023-03-08T13:07:18.533Z,20.03
2023-03-08T13:09:54.666Z,20.13
2023-03-08T13:12:32.792Z,19.27
2023-03-08T13:15:11.501Z,18.67
2023-03-08T13:17:41.641Z,18.57
2023-03-08T13:20:17.269Z,19.13
2023-03-08T13:23:12.974Z,20.67
2023-03-08T13:25:39.673Z,19.63
2023-03-08T13:28:13.081Z,20.27
2023-03-08T13:30:49.720Z,20.00
2023-03-08T13:33:40.240Z,18.90
2023-03-08T13:36:14.784Z,20.93
2023-03-08T13:38:41.522Z,20.03
2023-03-08T13:41:08.149Z,20.07
2023-03-08T13:43:35.789Z,19.77
2023-03-08T13:46:05.418Z,19.43
2023-03-08T13:48:34.936Z,19.17
2023-03-08T13:51:02.826Z,20.20
2023-03-08T13:53:35.462Z,20.10
2023-03-08T13:56:05.442Z,19.13
2023-03-08T13:58:38.349Z,21.70
2023-03-08T14:01:14.839Z,19.33
2023-03-08T14:03:43.678Z,19.87
2023-03-08T14:06:26.430Z,18.83
2023-03-08T14:08:58.856Z,19.67
2023-03-08T14:11:33.558Z,21.00
2023-03-08T14:14:02.891Z,20.67
2023-03-08T14:16:35.104Z,20.33
2023-03-08T14:19:27.589Z,21.80
2023-03-08T14:21:57.734Z,19.90
2023-03-08T14:24:26.636Z,20.33
2023-03-08T14:27:06.028Z,21.33
2023-03-08T14:29:34.624Z,20.77
2023-03-08T14:32:04.675Z,20.83
2023-03-08T14:34:41.673Z,22.43
2023-03-08T14:37:11.122Z,21.53
2023-03-08T14:39:42.164Z,20.10
2023-03-08T14:42:16.225Z,20.63
2023-03-08T14:44:42.718Z,20.53
2023-03-08T14:47:19.320Z,20.90
2023-03-08T14:49:55.221Z,20.70
2023-03-08T14:52:21.692Z,21.33
2023-03-08T14:54:48.240Z,21.50
2023-03-08T14:57:33.288Z,23.83
2023-03-08T15:00:14.026Z,20.60
2023-03-08T15:02:40.809Z,22.80
2023-03-08T15:05:14.143Z,21.93
2023-03-08T15:07:41.799Z,21.50
2023-03-08T15:10:14.169Z,21.60
2023-03-08T15:12:41.246Z,21.60
2023-03-08T15:15:14.737Z,21.97
2023-03-08T15:17:41.375Z,20.87
2023-03-08T15:20:10.179Z,20.33
2023-03-08T15:22:43.130Z,21.73
2023-03-08T15:25:19.146Z,22.47
2023-03-08T15:27:46.548Z,20.47
2023-03-08T15:30:21.207Z,20.83
2023-03-08T15:32:48.002Z,20.90
2023-03-08T15:35:14.893Z,20.73
2023-03-08T15:37:42.568Z,20.07
2023-03-08T15:40:29.072Z,21.23
2023-03-08T15:42:55.770Z,21.60
2023-03-08T15:45:22.203Z,21.70
2023-03-08T15:48:02.618Z,19.80
2023-03-08T15:50:30.821Z,19.97
2023-03-08T15:52:58.065Z,21.80
2023-03-08T15:55:26.485Z,21.30
2023-03-08T15:57:53.075Z,20.70
2023-03-08T16:00:22.048Z,20.87
2023-03-08T16:02:49.468Z,20.33
2023-03-08T16:05:16.459Z,20.67
2023-03-08T16:07:43.138Z,19.97
2023-03-08T16:10:13.199Z,20.57
2023-03-08T16:12:41.068Z,21.47
2023-03-08T16:15:08.062Z,20.30
2023-03-08T16:17:34.889Z,20.23
2023-03-08T16:20:01.304Z,20.00
2023-03-08T16:22:28.995Z,20.73
2023-03-08T16:24:55.532Z,20.00
2023-03-08T16:27:22.222Z,20.37
2023-03-08T16:29:52.714Z,20.13
2023-03-08T16:32:20.190Z,17.97
2023-03-08T16:34:52.606Z,19.70
2023-03-08T16:37:20.392Z,17.13
2023-03-08T16:39:49.126Z,19.43
2023-03-08T16:42:16.475Z,19.63
2023-03-08T16:44:50.514Z,20.03
2023-03-08T16:47:17.116Z,20.10
2023-03-08T16:49:43.607Z,19.07
2023-03-08T16:52:10.423Z,22.47
2023-03-08T16:54:36.822Z,20.80
2023-03-08T16:57:18.111Z,21.60
2023-03-08T16:59:45.418Z,21.63
2023-03-08T17:02:16.847Z,21.57
2023-03-08T17:04:43.592Z,19.40
2023-03-08T17:07:11.239Z,21.43
2023-03-08T17:09:38.455Z,22.03
2023-03-08T17:12:05.251Z,21.83
2023-03-08T17:14:34.633Z,23.23
2023-03-08T17:17:01.637Z,21.90
2023-03-08T17:19:28.063Z,21.10
2023-03-08T17:21:54.799Z,20.27
2023-03-08T17:24:22.333Z,21.40
2023-03-08T17:26:51.136Z,21.53
2023-03-08T17:29:17.703Z,22.60
2023-03-08T17:31:44.437Z,22.17
2023-03-08T17:34:11.058Z,24.13
2023-03-08T17:36:38.091Z,21.90
2023-03-08T17:39:04.600Z,21.90
2023-03-08T17:41:32.434Z,23.93
2023-03-08T17:43:59.076Z,23.13
2023-03-08T17:46:27.342Z,24.53
2023-03-08T17:48:55.564Z,22.30
2023-03-08T17:51:25.355Z,23.47
2023-03-08T17:53:52.617Z,22.87
2023-03-08T17:56:21.662Z,23.03
2023-03-08T17:58:49.719Z,24.93
2023-03-08T18:01:19.106Z,23.30
2023-03-08T18:03:46.482Z,25.70
2023-03-08T18:06:20.903Z,25.17
2023-03-08T18:08:47.318Z,24.03
2023-03-08T18:11:13.710Z,23.57
2023-03-08T18:13:40.928Z,23.80
2023-03-08T18:16:07.909Z,26.10
2023-03-08T18:18:34.340Z,25.43
2023-03-08T18:21:12.713Z,24.77
2023-03-08T18:23:42.877Z,25.90
2023-03-08T18:26:10.588Z,27.63
2023-03-08T18:28:37.081Z,25.23
2023-03-08T18:31:15.796Z,25.73
2023-03-08T18:33:42.631Z,26.67
2023-03-08T18:36:09.186Z,25.93
2023-03-08T18:38:35.898Z,26.70
2023-03-08T18:41:14.107Z,24.13
2023-03-08T18:43:41.264Z,21.90
2023-03-08T18:46:10.307Z,25.77
2023-03-08T18:48:36.886Z,22.47
2023-03-08T18:51:04.085Z,24.97
2023-03-08T18:53:30.453Z,24.17
2023-03-08T18:55:59.441Z,23.90
2023-03-08T18:58:26.472Z,24.63
2023-03-08T19:00:56.946Z,24.77
2023-03-08T19:03:23.487Z,25.70
2023-03-08T19:05:49.954Z,24.17
2023-03-08T19:08:16.368Z,27.63
2023-03-08T19:10:42.753Z,25.97
2023-03-08T19:13:09.136Z,27.30
2023-03-08T19:15:37.991Z,28.07
2023-03-08T19:18:05.818Z,27.77
2023-03-08T19:20:39.326Z,26.00
2023-03-08T19:23:05.853Z,25.87
2023-03-08T19:25:34.074Z,28.77
2023-03-08T19:28:00.593Z,27.37
2023-03-08T19:30:28.373Z,26.23
2023-03-08T19:32:55.996Z,25.40
2023-03-08T19:35:22.563Z,27.47
2023-03-08T19:37:48.957Z,26.80
2023-03-08T19:40:15.582Z,25.67
2023-03-08T19:42:41.974Z,29.43
2023-03-08T19:45:08.976Z,25.93
2023-03-08T19:47:35.341Z,26.57
2023-03-08T19:50:01.717Z,28.10
2023-03-08T19:52:28.088Z,29.13
2023-03-08T19:54:54.532Z,28.23
2023-03-08T19:57:20.947Z,26.10
2023-03-08T19:59:47.353Z,27.87
2023-03-08T20:02:13.752Z,26.63
2023-03-08T20:04:40.862Z,26.70
2023-03-08T20:07:07.572Z,24.23
2023-03-08T20:09:33.941Z,23.47
2023-03-08T20:12:00.361Z,24.67
2023-03-08T20:14:27.661Z,19.70
2023-03-08T20:16:55.102Z,15.77
2023-03-08T20:19:21.706Z,8.50
2023-03-08T20:21:49.045Z,8.07
2023-03-08T20:24:18.122Z,4.40
2023-03-08T20:26:45.594Z,3.90
2023-03-08T20:29:12.080Z,3.17
2023-03-08T20:31:38.669Z,2.90
2023-03-08T20:34:05.077Z,3.00
2023-03-08T20:36:31.660Z,3.07
2023-03-08T20:38:58.736Z,3.20
2023-03-08T20:41:25.794Z,3.13
2023-03-08T20:43:55.383Z,2.77
2023-03-08T20:46:25.890Z,2.97
2023-03-08T20:48:52.470Z,2.90
2023-03-08T20:51:21.868Z,3.10
2023-03-08T20:53:50.584Z,2.70
2023-03-08T20:56:18.903Z,2.90
2023-03-08T20:58:46.329Z,3.03
2023-03-08T21:01:15.465Z,2.87
2023-03-08T21:03:42.211Z,2.40
2023-03-08T21:06:13.618Z,2.70
2023-03-08T21:08:40.246Z,2.20
2023-03-08T21:11:06.772Z,2.13
2023-03-08T21:13:33.317Z,2.30
2023-03-08T21:16:01.346Z,2.23
2023-03-08T21:18:27.741Z,2.13
2023-03-08T21:20:54.140Z,1.90
2023-03-08T21:23:23.011Z,1.90
2023-03-08T21:25:53.094Z,1.93
2023-03-08T21:28:21.496Z,1.97
2023-03-08T21:30:48.344Z,1.67
2023-03-08T21:33:14.911Z,1.57
2023-03-08T21:35:42.430Z,1.47
2023-03-08T21:38:09.286Z,1.50
2023-03-08T21:40:41.080Z,1.50
2023-03-08T21:43:08.017Z,1.50
2023-03-08T21:45:42.174Z,1.40
2023-03-08T21:48:09.240Z,1.27
2023-03-08T21:50:39.815Z,1.33
2023-03-08T21:53:07.534Z,1.53
2023-03-08T21:55:34.156Z,1.50
2023-03-08T21:58:00.858Z,1.73
2023-03-08T22:00:27.426Z,1.60
2023-03-08T22:02:54.852Z,1.70
2023-03-08T22:05:21.408Z,1.90
2023-03-08T22:07:47.866Z,1.70
2023-03-08T22:10:15.169Z,1.40
2023-03-08T22:12:44.795Z,1.50
2023-03-08T22:15:12.269Z,1.73
2023-03-08T22:17:39.091Z,1.73
2023-03-08T22:20:06.309Z,1.60
2023-03-08T22:22:32.728Z,1.70
2023-03-08T22:25:00.055Z,1.77
2023-03-08T22:27:28.220Z,2.03
2023-03-08T22:29:55.066Z,1.53
2023-03-08T22:32:21.838Z,2.10
2023-03-08T22:34:48.344Z,2.40
2023-03-08T22:37:15.216Z,2.20
2023-03-08T22:39:42.045Z,1.90
2023-03-08T22:42:08.542Z,2.17
2023-03-08T22:44:34.991Z,2.33
2023-03-08T22:47:01.761Z,2.70
2023-03-08T22:49:28.188Z,2.97
2023-03-08T22:51:54.578Z,2.80
2023-03-08T22:54:23.169Z,3.00
2023-03-08T22:56:50.174Z,3.10
2023-03-08T22:59:17.204Z,3.17
2023-03-08T23:01:43.768Z,3.13
2023-03-08T23:04:11.941Z,3.17
2023-03-08T23:06:39.008Z,3.40
2023-03-08T23:09:07.936Z,3.20
2023-03-08T23:11:35.683Z,3.50
2023-03-08T23:14:03.218Z,3.33
2023-03-08T23:16:29.781Z,3.63
2023-03-08T23:18:56.600Z,3.57
2023-03-08T23:21:25.162Z,3.37
2023-03-08T23:23:51.600Z,3.30
2023-03-08T23:26:23.746Z,3.47
2023-03-08T23:28:51.090Z,3.40
2023-03-08T23:31:19.776Z,3.07
2023-03-08T23:33:46.536Z,3.30
2023-03-08T23:36:15.295Z,3.30
2023-03-08T23:38:42.442Z,3.70
2023-03-08T23:41:10.501Z,3.23
2023-03-08T23:43:37.822Z,3.40
2023-03-08T23:46:10.504Z,3.70
2023-03-08T23:48:37.219Z,3.30
2023-03-08T23:51:05.342Z,3.33
2023-03-08T23:53:31.751Z,3.33
2023-03-08T23:55:58.242Z,3.27
2023-03-08T23:58:24.710Z,3.30
